| time (UTC) | temp F | wind direction | speed MPH | gust MPH | rain 1hr in | rain 24hr in | rain mn in | humidity % | barometer mb |
| 20260507191216 | 57 | 0.0 | 0.0 | 0.00 | 0.00 | 0.00 | 66 | 1019.7 | |
| 20260507190216 | 57 | 248 | 1.0 | 2.0 | 0.00 | 0.00 | 0.00 | 66 | 1019.7 |
| 20260507185236 | 57 | 248 | 2.0 | 4.0 | 0.00 | 0.00 | 0.00 | 66 | 1019.9 |
| 20260507184216 | 57 | 158 | 2.0 | 5.0 | 0.00 | 0.00 | 0.00 | 66 | 1019.9 |
| 20260507183216 | 57 | 45 | 2.0 | 3.0 | 0.00 | 0.00 | 0.00 | 65 | 1020.0 |
| 20260507182215 | 57 | 0.0 | 0.0 | 0.00 | 0.00 | 0.00 | 66 | 1020.0 | |
| 20260507181235 | 56 | 203 | 1.0 | 3.0 | 0.00 | 0.00 | 0.00 | 67 | 1020.0 |
| 20260507180216 | 56 | 68 | 2.0 | 4.0 | 0.00 | 0.00 | 0.00 | 69 | 1020.0 |
| 20260507175216 | 55 | 23 | 1.0 | 2.0 | 0.00 | 0.00 | 0.00 | 68 | 1020.2 |
| 20260507174216 | 55 | 0.0 | 0.0 | 0.00 | 0.00 | 0.00 | 69 | 1020.2 | |
| 20260507173216 | 56 | 135 | 2.0 | 6.0 | 0.00 | 0.00 | 0.00 | 70 | 1020.2 |
| 20260507172216 | 54 | 225 | 1.0 | 4.0 | 0.00 | 0.00 | 0.00 | 72 | 1020.2 |
| 20260507171216 | 54 | 225 | 4.0 | 8.0 | 0.00 | 0.00 | 0.00 | 73 | 1020.2 |
| 20260507170216 | 53 | 0.0 | 2.0 | 0.00 | 0.00 | 0.00 | 73 | 1020.2 | |
| 20260507165216 | 53 | 248 | 1.0 | 3.0 | 0.00 | 0.00 | 0.00 | 74 | 1020.2 |
| 20260507164216 | 53 | 225 | 3.0 | 5.0 | 0.00 | 0.00 | 0.00 | 74 | 1020.3 |
| 20260507163216 | 53 | 0.0 | 0.0 | 0.00 | 0.00 | 0.00 | 74 | 1020.2 | |
| 20260507162215 | 52 | 158 | 2.0 | 4.0 | 0.00 | 0.00 | 0.00 | 75 | 1020.2 |
| 20260507161215 | 52 | 180 | 2.0 | 4.0 | 0.00 | 0.00 | 0.00 | 76 | 1020.3 |
| 20260507160216 | 52 | 248 | 2.0 | 4.0 | 0.00 | 0.00 | 0.00 | 77 | 1020.3 |
| 20260507155215 | 51 | 248 | 2.0 | 3.0 | 0.00 | 0.00 | 0.00 | 77 | 1020.4 |
| 20260507154215 | 51 | 225 | 2.0 | 4.0 | 0.00 | 0.00 | 0.00 | 78 | 1020.5 |
| 20260507153236 | 51 | 0.0 | 0.0 | 0.00 | 0.00 | 0.00 | 78 | 1020.3 | |
| 20260507152235 | 50 | 203 | 3.0 | 4.0 | 0.00 | 0.00 | 0.00 | 79 | 1020.4 |
| 20260507151235 | 50 | 248 | 3.0 | 5.0 | 0.00 | 0.00 | 0.00 | 79 | 1020.4 |
| 20260507150216 | 50 | 203 | 3.0 | 6.0 | 0.00 | 0.00 | 0.00 | 80 | 1020.4 |
| 20260507145215 | 50 | 270 | 1.0 | 2.0 | 0.00 | 0.00 | 0.00 | 80 | 1020.4 |
| 20260507144236 | 50 | 248 | 1.0 | 4.0 | 0.00 | 0.00 | 0.00 | 81 | 1020.4 |
| 20260507143216 | 50 | 225 | 2.0 | 4.0 | 0.00 | 0.00 | 0.00 | 81 | 1020.3 |
| 20260507142235 | 50 | 225 | 3.0 | 5.0 | 0.00 | 0.00 | 0.00 | 82 | 1020.3 |
| 20260507141215 | 50 | 225 | 2.0 | 4.0 | 0.00 | 0.00 | 0.00 | 82 | 1020.2 |
| 20260507140215 | 49 | 180 | 2.0 | 4.0 | 0.00 | 0.00 | 0.00 | 82 | 1020.2 |
| 20260507135215 | 49 | 225 | 1.0 | 3.0 | 0.00 | 0.00 | 0.00 | 82 | 1020.2 |
| 20260507134215 | 49 | 0.0 | 2.0 | 0.00 | 0.00 | 0.00 | 83 | 1020.0 | |
| 20260507133256 | 49 | 0.0 | 0.0 | 0.00 | 0.00 | 0.00 | 83 | 1020.0 | |
| 20260507132216 | 49 | 0.0 | 0.0 | 0.00 | 0.00 | 0.00 | 83 | 1020.1 | |
| 20260507131216 | 49 | 0.0 | 0.0 | 0.00 | 0.00 | 0.00 | 83 | 1020.2 | |
| 20260507130215 | 49 | 0.0 | 0.0 | 0.00 | 0.00 | 0.00 | 83 | 1020.1 | |
| 20260507125235 | 49 | 0.0 | 3.0 | 0.00 | 0.00 | 0.00 | 83 | 1020.2 | |
| 20260507124256 | 50 | 0.0 | 0.0 | 0.00 | 0.00 | 0.00 | 82 | 1020.1 | |
| 20260507123216 | 50 | 225 | 1.0 | 3.0 | 0.00 | 0.00 | 0.00 | 82 | 1020.2 |
| 20260507122215 | 50 | 0.0 | 1.0 | 0.00 | 0.00 | 0.00 | 83 | 1020.3 | |
| 20260507121236 | 50 | 0.0 | 0.0 | 0.00 | 0.00 | 0.00 | 82 | 1020.2 | |
| 20260507120215 | 50 | 225 | 2.0 | 3.0 | 0.00 | 0.00 | 0.00 | 81 | 1020.4 |
| 20260507115216 | 50 | 0.0 | 0.0 | 0.00 | 0.00 | 0.00 | 81 | 1020.4 | |
| 20260507114216 | 50 | 0.0 | 2.0 | 0.00 | 0.00 | 0.00 | 81 | 1020.5 | |
| 20260507113215 | 50 | 180 | 2.0 | 3.0 | 0.00 | 0.00 | 0.00 | 81 | 1020.4 |
| 20260507112215 | 50 | 180 | 2.0 | 4.0 | 0.00 | 0.00 | 0.00 | 81 | 1020.6 |
| 20260507111215 | 50 | 225 | 1.0 | 3.0 | 0.00 | 0.00 | 0.00 | 81 | 1020.6 |
| 20260507110216 | 50 | 248 | 1.0 | 2.0 | 0.00 | 0.00 | 0.00 | 81 | 1020.7 |
| 20260507105215 | 50 | 225 | 3.0 | 5.0 | 0.00 | 0.00 | 0.00 | 81 | 1020.7 |
| 20260507104215 | 50 | 225 | 2.0 | 4.0 | 0.00 | 0.00 | 0.00 | 81 | 1020.7 |
| 20260507103235 | 50 | 225 | 2.0 | 3.0 | 0.00 | 0.00 | 0.00 | 80 | 1020.7 |
| 20260507102215 | 50 | 248 | 2.0 | 4.0 | 0.00 | 0.00 | 0.00 | 81 | 1020.6 |
| 20260507101215 | 51 | 225 | 1.0 | 2.0 | 0.00 | 0.00 | 0.00 | 81 | 1020.6 |
| 20260507100255 | 51 | 203 | 3.0 | 4.0 | 0.00 | 0.00 | 0.00 | 81 | 1020.6 |
| 20260507095215 | 51 | 203 | 3.0 | 6.0 | 0.00 | 0.00 | 0.00 | 81 | 1020.7 |
| 20260507094216 | 51 | 225 | 4.0 | 6.0 | 0.00 | 0.00 | 0.00 | 81 | 1020.8 |
| 20260507093216 | 51 | 225 | 2.0 | 5.0 | 0.00 | 0.00 | 0.00 | 81 | 1020.8 |
| 20260507092215 | 51 | 0.0 | 3.0 | 0.00 | 0.00 | 0.00 | 81 | 1020.8 | |
| 20260507091216 | 51 | 225 | 2.0 | 3.0 | 0.00 | 0.00 | 0.00 | 81 | 1020.8 |
| 20260507090215 | 51 | 248 | 3.0 | 4.0 | 0.00 | 0.00 | 0.00 | 80 | 1020.9 |
| 20260507085215 | 51 | 225 | 4.0 | 6.0 | 0.00 | 0.00 | 0.00 | 80 | 1020.9 |
| 20260507084216 | 52 | 225 | 5.0 | 8.0 | 0.00 | 0.00 | 0.00 | 80 | 1020.9 |
| 20260507083216 | 52 | 225 | 4.0 | 7.0 | 0.00 | 0.00 | 0.00 | 79 | 1020.9 |
| 20260507082216 | 52 | 225 | 4.0 | 6.0 | 0.00 | 0.00 | 0.00 | 78 | 1020.9 |
| 20260507081236 | 52 | 225 | 4.0 | 7.0 | 0.00 | 0.00 | 0.00 | 78 | 1021.0 |
| 20260507080215 | 52 | 225 | 2.0 | 4.0 | 0.00 | 0.00 | 0.00 | 77 | 1020.9 |
| 20260507075316 | 52 | 225 | 2.0 | 4.0 | 0.00 | 0.00 | 0.00 | 77 | 1020.9 |
| 20260507074216 | 52 | 203 | 3.0 | 5.0 | 0.00 | 0.00 | 0.00 | 77 | 1020.8 |
| 20260507073215 | 52 | 225 | 5.0 | 6.0 | 0.00 | 0.00 | 0.00 | 77 | 1020.7 |
| 20260507072216 | 52 | 225 | 2.0 | 3.0 | 0.00 | 0.00 | 0.00 | 78 | 1020.8 |
| 20260507071236 | 52 | 225 | 4.0 | 8.0 | 0.00 | 0.00 | 0.00 | 78 | 1020.7 |
| 20260507070215 | 52 | 158 | 2.0 | 3.0 | 0.00 | 0.00 | 0.00 | 78 | 1020.7 |
| 20260507065216 | 53 | 203 | 3.0 | 5.0 | 0.00 | 0.00 | 0.00 | 79 | 1020.8 |
| 20260507064216 | 53 | 248 | 1.0 | 2.0 | 0.00 | 0.00 | 0.00 | 79 | 1020.9 |
| 20260507063216 | 53 | 203 | 3.0 | 6.0 | 0.00 | 0.00 | 0.00 | 79 | 1020.8 |
| 20260507062216 | 53 | 225 | 3.0 | 5.0 | 0.00 | 0.00 | 0.00 | 79 | 1020.8 |
| 20260507061216 | 53 | 225 | 4.0 | 7.0 | 0.00 | 0.00 | 0.00 | 78 | 1020.8 |
| 20260507060217 | 53 | 248 | 3.0 | 4.0 | 0.00 | 0.00 | 0.00 | 78 | 1020.8 |
| 20260507055216 | 53 | 248 | 3.0 | 4.0 | 0.00 | 0.00 | 0.00 | 78 | 1020.9 |
| 20260507054216 | 53 | 248 | 4.0 | 6.0 | 0.00 | 0.00 | 0.00 | 78 | 1020.8 |
| 20260507053216 | 53 | 248 | 3.0 | 6.0 | 0.00 | 0.00 | 0.00 | 79 | 1020.9 |
| 20260507052216 | 53 | 248 | 5.0 | 7.0 | 0.00 | 0.00 | 0.00 | 80 | 1020.8 |
| 20260507051216 | 53 | 248 | 3.0 | 5.0 | 0.00 | 0.00 | 0.00 | 81 | 1020.8 |
| 20260507050216 | 54 | 225 | 6.0 | 8.0 | 0.00 | 0.00 | 0.00 | 82 | 1020.9 |
| 20260507045216 | 54 | 225 | 3.0 | 5.0 | 0.00 | 0.00 | 0.00 | 82 | 1020.9 |
| 20260507044216 | 54 | 203 | 4.0 | 6.0 | 0.00 | 0.00 | 0.00 | 82 | 1020.9 |
| 20260507043218 | 54 | 248 | 4.0 | 8.0 | 0.00 | 0.00 | 0.00 | 82 | 1020.9 |
| 20260507042216 | 54 | 248 | 6.0 | 9.0 | 0.00 | 0.00 | 0.00 | 82 | 1020.9 |
| 20260507041216 | 54 | 203 | 4.0 | 5.0 | 0.00 | 0.00 | 0.00 | 81 | 1020.8 |
| 20260507040216 | 54 | 225 | 3.0 | 6.0 | 0.00 | 0.00 | 0.00 | 81 | 1020.6 |
| 20260507035216 | 54 | 203 | 4.0 | 6.0 | 0.00 | 0.00 | 0.00 | 81 | 1020.6 |
| 20260507034216 | 54 | 248 | 3.0 | 6.0 | 0.00 | 0.00 | 0.00 | 81 | 1020.5 |
| 20260507033216 | 55 | 225 | 4.0 | 6.0 | 0.00 | 0.00 | 0.00 | 82 | 1020.5 |
| 20260507032216 | 55 | 248 | 4.0 | 8.0 | 0.00 | 0.00 | 0.00 | 81 | 1020.4 |
| 20260507031216 | 55 | 225 | 5.0 | 7.0 | 0.00 | 0.00 | 0.00 | 81 | 1020.4 |
| 20260507030236 | 55 | 248 | 5.0 | 6.0 | 0.00 | 0.00 | 0.00 | 80 | 1020.2 |
| 20260507025216 | 55 | 248 | 2.0 | 5.0 | 0.00 | 0.00 | 0.00 | 80 | 1020.1 |
| 20260507024216 | 55 | 248 | 4.0 | 7.0 | 0.00 | 0.00 | 0.00 | 80 | 1020.1 |
| 20260507023216 | 55 | 248 | 4.0 | 7.0 | 0.00 | 0.00 | 0.00 | 80 | 1020.0 |
| 20260507022216 | 56 | 248 | 7.0 | 10.0 | 0.00 | 0.00 | 0.00 | 79 | 1020.0 |
| 20260507021216 | 56 | 248 | 3.0 | 5.0 | 0.00 | 0.00 | 0.00 | 79 | 1020.0 |
| 20260507020216 | 56 | 225 | 6.0 | 10.0 | 0.00 | 0.00 | 0.00 | 79 | 1020.0 |
| 20260507015216 | 56 | 270 | 5.0 | 9.0 | 0.00 | 0.00 | 0.00 | 78 | 1020.0 |
| 20260507014216 | 56 | 248 | 3.0 | 5.0 | 0.00 | 0.00 | 0.00 | 78 | 1020.0 |
| 20260507013216 | 57 | 248 | 6.0 | 8.0 | 0.00 | 0.00 | 0.00 | 77 | 1020.0 |
| 20260507012236 | 57 | 293 | 4.0 | 6.0 | 0.00 | 0.00 | 0.00 | 77 | 1020.1 |
| 20260507011216 | 57 | 248 | 6.0 | 10.0 | 0.00 | 0.00 | 0.00 | 76 | 1020.0 |
| 20260507010216 | 57 | 293 | 4.0 | 8.0 | 0.00 | 0.00 | 0.00 | 76 | 1020.0 |
| 20260507005216 | 58 | 293 | 4.0 | 7.0 | 0.00 | 0.00 | 0.00 | 75 | 1020.0 |
| 20260507004216 | 58 | 248 | 7.0 | 11.0 | 0.00 | 0.00 | 0.00 | 75 | 1020.1 |
| 20260507003216 | 58 | 248 | 5.0 | 8.0 | 0.00 | 0.00 | 0.00 | 74 | 1020.1 |
| 20260507002236 | 59 | 225 | 5.0 | 9.0 | 0.00 | 0.00 | 0.00 | 73 | 1020.1 |
| 20260507001216 | 59 | 225 | 7.0 | 10.0 | 0.00 | 0.00 | 0.00 | 72 | 1020.1 |
| 20260507000219 | 60 | 203 | 6.0 | 10.0 | 0.00 | 0.00 | 0.00 | 73 | 1020.2 |
| 20260506235216 | 59 | 248 | 5.0 | 8.0 | 0.00 | 0.00 | 0.00 | 74 | 1020.3 |
| 20260506234216 | 59 | 270 | 7.0 | 9.0 | 0.00 | 0.00 | 0.00 | 73 | 1020.3 |
| 20260506233216 | 59 | 248 | 8.0 | 12.0 | 0.00 | 0.00 | 0.00 | 72 | 1020.2 |
| 20260506232216 | 59 | 248 | 6.0 | 10.0 | 0.00 | 0.00 | 0.00 | 73 | 1020.2 |
| 20260506231216 | 60 | 270 | 7.0 | 15.0 | 0.00 | 0.00 | 0.00 | 72 | 1020.3 |
| 20260506230216 | 60 | 225 | 5.0 | 9.0 | 0.00 | 0.00 | 0.00 | 71 | 1020.1 |
| 20260506225236 | 60 | 248 | 4.0 | 8.0 | 0.00 | 0.00 | 0.00 | 71 | 1020.1 |
| 20260506224216 | 60 | 225 | 4.0 | 8.0 | 0.00 | 0.00 | 0.00 | 72 | 1020.2 |
| 20260506223236 | 60 | 248 | 8.0 | 13.0 | 0.00 | 0.00 | 0.00 | 72 | 1020.3 |
| 20260506222216 | 60 | 248 | 4.0 | 6.0 | 0.00 | 0.00 | 0.00 | 72 | 1020.3 |
| 20260506221216 | 60 | 248 | 8.0 | 16.0 | 0.00 | 0.00 | 0.00 | 72 | 1020.6 |
| 20260506220216 | 60 | 270 | 6.0 | 9.0 | 0.00 | 0.00 | 0.00 | 73 | 1020.5 |
| 20260506215216 | 60 | 248 | 7.0 | 10.0 | 0.00 | 0.00 | 0.00 | 72 | 1020.5 |
| 20260506214216 | 59 | 248 | 6.0 | 10.0 | 0.00 | 0.00 | 0.00 | 72 | 1020.5 |
| 20260506213216 | 60 | 293 | 6.0 | 10.0 | 0.00 | 0.00 | 0.00 | 72 | 1020.6 |
| 20260506212216 | 60 | 248 | 7.0 | 10.0 | 0.00 | 0.00 | 0.00 | 71 | 1020.5 |
| 20260506211236 | 60 | 248 | 6.0 | 9.0 | 0.00 | 0.00 | 0.00 | 72 | 1020.5 |
| 20260506210216 | 60 | 248 | 4.0 | 8.0 | 0.00 | 0.00 | 0.00 | 73 | 1020.4 |
| 20260506205216 | 59 | 293 | 5.0 | 12.0 | 0.00 | 0.00 | 0.00 | 73 | 1020.5 |
| 20260506204216 | 59 | 225 | 5.0 | 7.0 | 0.00 | 0.00 | 0.00 | 74 | 1020.4 |
| 20260506203216 | 59 | 225 | 4.0 | 8.0 | 0.00 | 0.00 | 0.00 | 73 | 1020.3 |
| 20260506202236 | 59 | 270 | 3.0 | 7.0 | 0.00 | 0.00 | 0.00 | 74 | 1020.3 |
| 20260506201216 | 59 | 225 | 3.0 | 6.0 | 0.00 | 0.00 | 0.00 | 75 | 1020.3 |
| 20260506200236 | 58 | 225 | 2.0 | 4.0 | 0.00 | 0.00 | 0.00 | 75 | 1020.3 |
| 20260506195216 | 58 | 248 | 3.0 | 4.0 | 0.00 | 0.00 | 0.00 | 76 | 1020.2 |
| 20260506194216 | 58 | 248 | 4.0 | 6.0 | 0.00 | 0.00 | 0.00 | 76 | 1020.2 |
| 20260506193216 | 57 | 248 | 6.0 | 9.0 | 0.00 | 0.00 | 0.00 | 77 | 1020.2 |
| 20260506192216 | 57 | 248 | 3.0 | 6.0 | 0.00 | 0.00 | 0.00 | 77 | 1020.0 |